sensor_id;sensor_type;location;lat;lon;timestamp;P1;durP1;ratioP1;P2;durP2;ratioP2
36321;SDS011;23564;48.290;11.460;2023-05-15T00:01:17;8.27;;;7.38;;
36321;SDS011;23564;48.290;11.460;2023-05-15T00:03:42;8.88;;;7.47;;
36321;SDS011;23564;48.290;11.460;2023-05-15T00:06:08;9.00;;;7.47;;
36321;SDS011;23564;48.290;11.460;2023-05-15T00:08:33;12.07;;;8.13;;
36321;SDS011;23564;48.290;11.460;2023-05-15T00:10:59;10.73;;;8.73;;
36321;SDS011;23564;48.290;11.460;2023-05-15T00:13:25;11.07;;;8.60;;
36321;SDS011;23564;48.290;11.460;2023-05-15T00:15:50;10.30;;;8.20;;
36321;SDS011;23564;48.290;11.460;2023-05-15T00:18:16;10.52;;;8.60;;
36321;SDS011;23564;48.290;11.460;2023-05-15T00:20:42;10.27;;;8.50;;
36321;SDS011;23564;48.290;11.460;2023-05-15T00:23:08;9.07;;;7.43;;
36321;SDS011;23564;48.290;11.460;2023-05-15T00:25:33;13.95;;;8.60;;
36321;SDS011;23564;48.290;11.460;2023-05-15T00:27:59;12.07;;;9.30;;
36321;SDS011;23564;48.290;11.460;2023-05-15T00:30:24;14.50;;;10.27;;
36321;SDS011;23564;48.290;11.460;2023-05-15T00:32:50;12.32;;;9.75;;
36321;SDS011;23564;48.290;11.460;2023-05-15T00:35:16;15.07;;;10.82;;
36321;SDS011;23564;48.290;11.460;2023-05-15T00:37:41;13.88;;;9.80;;
36321;SDS011;23564;48.290;11.460;2023-05-15T00:40:08;12.88;;;10.20;;
36321;SDS011;23564;48.290;11.460;2023-05-15T00:42:34;12.75;;;9.82;;
36321;SDS011;23564;48.290;11.460;2023-05-15T00:45:01;12.55;;;10.15;;
36321;SDS011;23564;48.290;11.460;2023-05-15T00:47:27;15.70;;;10.75;;
36321;SDS011;23564;48.290;11.460;2023-05-15T00:49:53;16.05;;;11.68;;
36321;SDS011;23564;48.290;11.460;2023-05-15T00:52:20;13.73;;;10.40;;
36321;SDS011;23564;48.290;11.460;2023-05-15T00:54:46;14.07;;;11.13;;
36321;SDS011;23564;48.290;11.460;2023-05-15T00:57:12;18.95;;;12.23;;
36321;SDS011;23564;48.290;11.460;2023-05-15T00:59:39;16.25;;;11.48;;
36321;SDS011;23564;48.290;11.460;2023-05-15T01:02:06;19.35;;;12.13;;
36321;SDS011;23564;48.290;11.460;2023-05-15T01:04:31;19.63;;;13.43;;
36321;SDS011;23564;48.290;11.460;2023-05-15T01:06:57;18.45;;;12.43;;
36321;SDS011;23564;48.290;11.460;2023-05-15T01:09:23;17.63;;;12.27;;
36321;SDS011;23564;48.290;11.460;2023-05-15T01:11:53;20.17;;;13.77;;
36321;SDS011;23564;48.290;11.460;2023-05-15T01:14:21;17.23;;;12.80;;
36321;SDS011;23564;48.290;11.460;2023-05-15T01:16:46;19.15;;;12.50;;
36321;SDS011;23564;48.290;11.460;2023-05-15T01:19:12;21.73;;;14.23;;
36321;SDS011;23564;48.290;11.460;2023-05-15T01:22:03;19.95;;;12.90;;
36321;SDS011;23564;48.290;11.460;2023-05-15T01:24:42;21.08;;;13.88;;
36321;SDS011;23564;48.290;11.460;2023-05-15T01:30:21;18.45;;;13.02;;
36321;SDS011;23564;48.290;11.460;2023-05-15T01:35:32;19.02;;;12.15;;
36321;SDS011;23564;48.290;11.460;2023-05-15T01:41:10;19.50;;;13.10;;
36321;SDS011;23564;48.290;11.460;2023-05-15T01:44:01;22.35;;;12.73;;
36321;SDS011;23564;48.290;11.460;2023-05-15T01:46:30;17.58;;;11.95;;
36321;SDS011;23564;48.290;11.460;2023-05-15T01:48:59;16.73;;;11.60;;
36321;SDS011;23564;48.290;11.460;2023-05-15T01:51:27;16.10;;;11.70;;
36321;SDS011;23564;48.290;11.460;2023-05-15T01:53:54;16.48;;;11.50;;
36321;SDS011;23564;48.290;11.460;2023-05-15T01:56:23;17.52;;;11.63;;
36321;SDS011;23564;48.290;11.460;2023-05-15T01:58:50;15.98;;;11.88;;
36321;SDS011;23564;48.290;11.460;2023-05-15T02:01:17;16.10;;;12.43;;
36321;SDS011;23564;48.290;11.460;2023-05-15T02:03:44;16.83;;;12.70;;
36321;SDS011;23564;48.290;11.460;2023-05-15T02:06:10;21.77;;;12.85;;
36321;SDS011;23564;48.290;11.460;2023-05-15T02:08:36;18.15;;;13.23;;
36321;SDS011;23564;48.290;11.460;2023-05-15T02:11:03;22.13;;;13.90;;
36321;SDS011;23564;48.290;11.460;2023-05-15T02:13:29;18.50;;;13.50;;
36321;SDS011;23564;48.290;11.460;2023-05-15T02:15:56;19.15;;;12.88;;
36321;SDS011;23564;48.290;11.460;2023-05-15T02:18:22;20.75;;;14.02;;
36321;SDS011;23564;48.290;11.460;2023-05-15T02:20:47;21.30;;;14.35;;
36321;SDS011;23564;48.290;11.460;2023-05-15T02:23:13;23.75;;;14.88;;
36321;SDS011;23564;48.290;11.460;2023-05-15T02:28:13;20.25;;;13.90;;
36321;SDS011;23564;48.290;11.460;2023-05-15T02:30:57;22.42;;;15.40;;
36321;SDS011;23564;48.290;11.460;2023-05-15T02:36:06;23.55;;;15.38;;
36321;SDS011;23564;48.290;11.460;2023-05-15T02:38:36;23.25;;;15.45;;
36321;SDS011;23564;48.290;11.460;2023-05-15T02:41:04;23.02;;;14.93;;
36321;SDS011;23564;48.290;11.460;2023-05-15T02:43:31;22.13;;;15.38;;
36321;SDS011;23564;48.290;11.460;2023-05-15T02:45:58;23.77;;;16.13;;
36321;SDS011;23564;48.290;11.460;2023-05-15T02:48:24;22.75;;;14.25;;
36321;SDS011;23564;48.290;11.460;2023-05-15T02:50:51;26.30;;;16.00;;
36321;SDS011;23564;48.290;11.460;2023-05-15T02:53:17;23.85;;;15.68;;
36321;SDS011;23564;48.290;11.460;2023-05-15T02:55:42;22.00;;;15.50;;
36321;SDS011;23564;48.290;11.460;2023-05-15T02:58:08;20.63;;;14.27;;
36321;SDS011;23564;48.290;11.460;2023-05-15T03:00:34;22.58;;;14.85;;
36321;SDS011;23564;48.290;11.460;2023-05-15T03:02:59;22.40;;;15.00;;
36321;SDS011;23564;48.290;11.460;2023-05-15T03:05:25;21.92;;;14.98;;
36321;SDS011;23564;48.290;11.460;2023-05-15T03:07:50;25.10;;;15.48;;
36321;SDS011;23564;48.290;11.460;2023-05-15T03:10:16;25.05;;;14.80;;
36321;SDS011;23564;48.290;11.460;2023-05-15T03:12:42;24.70;;;16.67;;
36321;SDS011;23564;48.290;11.460;2023-05-15T03:15:07;23.27;;;15.80;;
36321;SDS011;23564;48.290;11.460;2023-05-15T03:17:33;24.77;;;16.05;;
36321;SDS011;23564;48.290;11.460;2023-05-15T03:19:59;21.70;;;15.27;;
36321;SDS011;23564;48.290;11.460;2023-05-15T03:22:24;22.75;;;15.38;;
36321;SDS011;23564;48.290;11.460;2023-05-15T03:24:50;24.85;;;16.40;;
36321;SDS011;23564;48.290;11.460;2023-05-15T03:27:16;29.58;;;17.55;;
36321;SDS011;23564;48.290;11.460;2023-05-15T03:29:41;27.35;;;17.90;;
36321;SDS011;23564;48.290;11.460;2023-05-15T03:32:07;28.50;;;20.05;;
36321;SDS011;23564;48.290;11.460;2023-05-15T03:34:33;36.00;;;23.92;;
36321;SDS011;23564;48.290;11.460;2023-05-15T03:36:58;28.58;;;19.85;;
36321;SDS011;23564;48.290;11.460;2023-05-15T03:39:24;31.45;;;19.83;;
36321;SDS011;23564;48.290;11.460;2023-05-15T03:41:50;27.88;;;18.40;;
36321;SDS011;23564;48.290;11.460;2023-05-15T03:44:15;28.00;;;18.67;;
36321;SDS011;23564;48.290;11.460;2023-05-15T03:46:41;28.90;;;18.17;;
36321;SDS011;23564;48.290;11.460;2023-05-15T03:49:06;25.38;;;16.73;;
36321;SDS011;23564;48.290;11.460;2023-05-15T03:51:32;25.77;;;17.08;;
36321;SDS011;23564;48.290;11.460;2023-05-15T03:53:58;26.33;;;18.02;;
36321;SDS011;23564;48.290;11.460;2023-05-15T03:56:23;30.00;;;19.02;;
36321;SDS011;23564;48.290;11.460;2023-05-15T03:58:49;30.55;;;18.52;;
36321;SDS011;23564;48.290;11.460;2023-05-15T04:01:14;28.42;;;18.50;;
36321;SDS011;23564;48.290;11.460;2023-05-15T04:03:40;30.05;;;19.58;;
36321;SDS011;23564;48.290;11.460;2023-05-15T04:06:06;26.52;;;18.63;;
36321;SDS011;23564;48.290;11.460;2023-05-15T04:08:31;29.40;;;18.02;;
36321;SDS011;23564;48.290;11.460;2023-05-15T04:10:57;27.25;;;17.85;;
36321;SDS011;23564;48.290;11.460;2023-05-15T04:13:22;31.55;;;18.25;;
36321;SDS011;23564;48.290;11.460;2023-05-15T04:15:48;29.23;;;18.45;;
36321;SDS011;23564;48.290;11.460;2023-05-15T04:18:13;26.33;;;17.63;;
36321;SDS011;23564;48.290;11.460;2023-05-15T04:20:39;26.40;;;18.45;;
36321;SDS011;23564;48.290;11.460;2023-05-15T04:23:04;30.65;;;19.02;;
36321;SDS011;23564;48.290;11.460;2023-05-15T04:25:30;29.75;;;18.85;;
36321;SDS011;23564;48.290;11.460;2023-05-15T04:27:56;28.38;;;18.75;;
36321;SDS011;23564;48.290;11.460;2023-05-15T04:30:22;26.52;;;18.17;;
36321;SDS011;23564;48.290;11.460;2023-05-15T04:32:47;28.90;;;16.83;;
36321;SDS011;23564;48.290;11.460;2023-05-15T04:35:14;23.52;;;16.90;;
36321;SDS011;23564;48.290;11.460;2023-05-15T04:37:40;23.25;;;15.85;;
36321;SDS011;23564;48.290;11.460;2023-05-15T04:40:07;27.15;;;16.83;;
36321;SDS011;23564;48.290;11.460;2023-05-15T04:42:34;27.65;;;17.20;;
36321;SDS011;23564;48.290;11.460;2023-05-15T04:45:01;23.65;;;16.35;;
36321;SDS011;23564;48.290;11.460;2023-05-15T04:47:27;24.88;;;17.10;;
36321;SDS011;23564;48.290;11.460;2023-05-15T04:49:52;24.30;;;16.58;;
36321;SDS011;23564;48.290;11.460;2023-05-15T04:52:18;24.35;;;16.23;;
36321;SDS011;23564;48.290;11.460;2023-05-15T04:54:44;30.05;;;17.92;;
36321;SDS011;23564;48.290;11.460;2023-05-15T04:57:11;26.10;;;18.20;;
36321;SDS011;23564;48.290;11.460;2023-05-15T04:59:37;28.50;;;16.42;;
36321;SDS011;23564;48.290;11.460;2023-05-15T05:02:03;26.85;;;17.60;;
36321;SDS011;23564;48.290;11.460;2023-05-15T05:04:28;29.55;;;18.15;;
36321;SDS011;23564;48.290;11.460;2023-05-15T05:06:54;24.50;;;17.10;;
36321;SDS011;23564;48.290;11.460;2023-05-15T05:09:20;25.52;;;17.08;;
36321;SDS011;23564;48.290;11.460;2023-05-15T05:11:46;24.88;;;16.90;;
36321;SDS011;23564;48.290;11.460;2023-05-15T05:14:12;24.65;;;17.17;;
36321;SDS011;23564;48.290;11.460;2023-05-15T05:16:39;25.90;;;18.50;;
36321;SDS011;23564;48.290;11.460;2023-05-15T05:19:05;22.83;;;17.30;;
36321;SDS011;23564;48.290;11.460;2023-05-15T05:21:31;28.60;;;19.45;;
36321;SDS011;23564;48.290;11.460;2023-05-15T05:23:57;33.70;;;18.80;;
36321;SDS011;23564;48.290;11.460;2023-05-15T05:26:23;28.80;;;19.23;;
36321;SDS011;23564;48.290;11.460;2023-05-15T05:28:50;27.95;;;19.00;;
36321;SDS011;23564;48.290;11.460;2023-05-15T05:31:15;28.42;;;19.27;;
36321;SDS011;23564;48.290;11.460;2023-05-15T05:33:41;26.50;;;18.63;;
36321;SDS011;23564;48.290;11.460;2023-05-15T05:36:06;28.00;;;19.42;;
36321;SDS011;23564;48.290;11.460;2023-05-15T05:38:32;31.67;;;19.75;;
36321;SDS011;23564;48.290;11.460;2023-05-15T05:40:58;29.58;;;19.98;;
36321;SDS011;23564;48.290;11.460;2023-05-15T05:43:25;28.10;;;19.73;;
36321;SDS011;23564;48.290;11.460;2023-05-15T05:45:51;26.55;;;17.75;;
36321;SDS011;23564;48.290;11.460;2023-05-15T05:48:16;28.05;;;19.20;;
36321;SDS011;23564;48.290;11.460;2023-05-15T05:50:42;27.50;;;19.48;;
36321;SDS011;23564;48.290;11.460;2023-05-15T05:53:08;28.80;;;18.17;;
36321;SDS011;23564;48.290;11.460;2023-05-15T05:55:33;27.45;;;18.70;;
36321;SDS011;23564;48.290;11.460;2023-05-15T05:57:59;23.83;;;16.55;;
36321;SDS011;23564;48.290;11.460;2023-05-15T06:00:25;26.52;;;16.60;;
36321;SDS011;23564;48.290;11.460;2023-05-15T06:02:53;26.48;;;16.77;;
36321;SDS011;23564;48.290;11.460;2023-05-15T06:05:23;25.30;;;17.70;;
36321;SDS011;23564;48.290;11.460;2023-05-15T06:07:49;27.90;;;17.20;;
36321;SDS011;23564;48.290;11.460;2023-05-15T06:10:16;25.52;;;16.15;;
36321;SDS011;23564;48.290;11.460;2023-05-15T06:12:42;21.83;;;15.55;;
36321;SDS011;23564;48.290;11.460;2023-05-15T06:15:08;21.83;;;15.20;;
36321;SDS011;23564;48.290;11.460;2023-05-15T06:17:34;20.52;;;14.82;;
36321;SDS011;23564;48.290;11.460;2023-05-15T06:19:59;20.30;;;14.57;;
36321;SDS011;23564;48.290;11.460;2023-05-15T06:22:25;19.77;;;14.27;;
36321;SDS011;23564;48.290;11.460;2023-05-15T06:24:50;21.08;;;15.30;;
36321;SDS011;23564;48.290;11.460;2023-05-15T06:27:16;20.35;;;15.40;;
36321;SDS011;23564;48.290;11.460;2023-05-15T06:29:41;19.52;;;14.85;;
36321;SDS011;23564;48.290;11.460;2023-05-15T06:32:07;18.10;;;13.65;;
36321;SDS011;23564;48.290;11.460;2023-05-15T06:34:33;18.15;;;12.93;;
36321;SDS011;23564;48.290;11.460;2023-05-15T06:36:58;17.98;;;13.45;;
36321;SDS011;23564;48.290;11.460;2023-05-15T06:39:25;16.60;;;12.63;;
36321;SDS011;23564;48.290;11.460;2023-05-15T06:41:50;20.30;;;14.27;;
36321;SDS011;23564;48.290;11.460;2023-05-15T06:44:21;16.98;;;12.50;;
36321;SDS011;23564;48.290;11.460;2023-05-15T06:46:47;15.40;;;11.77;;
36321;SDS011;23564;48.290;11.460;2023-05-15T06:49:13;14.32;;;10.82;;
36321;SDS011;23564;48.290;11.460;2023-05-15T06:51:38;15.38;;;11.63;;
36321;SDS011;23564;48.290;11.460;2023-05-15T06:54:04;19.67;;;12.35;;
36321;SDS011;23564;48.290;11.460;2023-05-15T06:56:30;16.40;;;11.75;;
36321;SDS011;23564;48.290;11.460;2023-05-15T06:58:55;15.30;;;11.85;;
36321;SDS011;23564;48.290;11.460;2023-05-15T07:01:21;18.45;;;12.70;;
36321;SDS011;23564;48.290;11.460;2023-05-15T07:03:46;19.23;;;12.32;;
36321;SDS011;23564;48.290;11.460;2023-05-15T07:06:12;18.52;;;12.60;;
36321;SDS011;23564;48.290;11.460;2023-05-15T07:08:37;18.05;;;13.70;;
36321;SDS011;23564;48.290;11.460;2023-05-15T07:11:03;18.05;;;13.13;;
36321;SDS011;23564;48.290;11.460;2023-05-15T07:13:29;16.35;;;12.10;;
36321;SDS011;23564;48.290;11.460;2023-05-15T07:15:54;19.25;;;13.63;;
36321;SDS011;23564;48.290;11.460;2023-05-15T07:18:20;15.65;;;12.52;;
36321;SDS011;23564;48.290;11.460;2023-05-15T07:20:45;14.68;;;11.32;;
36321;SDS011;23564;48.290;11.460;2023-05-15T07:23:11;17.90;;;13.40;;
36321;SDS011;23564;48.290;11.460;2023-05-15T07:25:36;16.48;;;12.90;;
36321;SDS011;23564;48.290;11.460;2023-05-15T07:28:02;15.23;;;11.40;;
36321;SDS011;23564;48.290;11.460;2023-05-15T07:30:28;14.50;;;10.38;;
36321;SDS011;23564;48.290;11.460;2023-05-15T07:32:53;14.77;;;10.60;;
36321;SDS011;23564;48.290;11.460;2023-05-15T07:35:19;14.50;;;10.27;;
36321;SDS011;23564;48.290;11.460;2023-05-15T07:37:44;14.02;;;9.45;;
36321;SDS011;23564;48.290;11.460;2023-05-15T07:40:10;12.55;;;9.38;;
36321;SDS011;23564;48.290;11.460;2023-05-15T07:42:36;11.57;;;8.93;;
36321;SDS011;23564;48.290;11.460;2023-05-15T07:45:03;18.00;;;9.65;;
36321;SDS011;23564;48.290;11.460;2023-05-15T07:47:30;13.35;;;8.77;;
36321;SDS011;23564;48.290;11.460;2023-05-15T07:49:55;14.13;;;9.10;;
36321;SDS011;23564;48.290;11.460;2023-05-15T07:52:21;12.23;;;8.75;;
36321;SDS011;23564;48.290;11.460;2023-05-15T07:54:46;11.57;;;8.90;;
36321;SDS011;23564;48.290;11.460;2023-05-15T07:57:12;13.30;;;8.23;;
36321;SDS011;23564;48.290;11.460;2023-05-15T07:59:38;12.57;;;7.90;;
36321;SDS011;23564;48.290;11.460;2023-05-15T08:02:03;12.25;;;7.47;;
36321;SDS011;23564;48.290;11.460;2023-05-15T08:04:29;10.25;;;8.20;;
36321;SDS011;23564;48.290;11.460;2023-05-15T08:06:55;10.30;;;7.88;;
36321;SDS011;23564;48.290;11.460;2023-05-15T08:09:20;10.20;;;7.93;;
36321;SDS011;23564;48.290;11.460;2023-05-15T08:11:46;9.82;;;7.63;;
36321;SDS011;23564;48.290;11.460;2023-05-15T08:14:11;10.98;;;8.05;;
36321;SDS011;23564;48.290;11.460;2023-05-15T08:16:37;12.95;;;7.55;;
36321;SDS011;23564;48.290;11.460;2023-05-15T08:19:03;9.13;;;7.43;;
36321;SDS011;23564;48.290;11.460;2023-05-15T08:21:30;10.38;;;7.80;;
36321;SDS011;23564;48.290;11.460;2023-05-15T08:23:57;9.52;;;7.20;;
36321;SDS011;23564;48.290;11.460;2023-05-15T08:26:23;10.05;;;7.93;;
36321;SDS011;23564;48.290;11.460;2023-05-15T08:28:49;13.90;;;8.50;;
36321;SDS011;23564;48.290;11.460;2023-05-15T08:31:15;10.98;;;7.70;;
36321;SDS011;23564;48.290;11.460;2023-05-15T08:33:40;9.65;;;7.35;;
36321;SDS011;23564;48.290;11.460;2023-05-15T08:36:06;12.95;;;7.18;;
36321;SDS011;23564;48.290;11.460;2023-05-15T08:38:32;12.15;;;7.72;;
36321;SDS011;23564;48.290;11.460;2023-05-15T08:41:00;8.45;;;6.35;;
36321;SDS011;23564;48.290;11.460;2023-05-15T08:43:31;10.45;;;6.78;;
36321;SDS011;23564;48.290;11.460;2023-05-15T08:46:00;7.95;;;6.38;;
36321;SDS011;23564;48.290;11.460;2023-05-15T08:48:26;9.73;;;6.65;;
36321;SDS011;23564;48.290;11.460;2023-05-15T08:50:54;10.07;;;7.22;;
36321;SDS011;23564;48.290;11.460;2023-05-15T08:53:22;10.30;;;6.65;;
36321;SDS011;23564;48.290;11.460;2023-05-15T08:55:48;9.10;;;6.10;;
36321;SDS011;23564;48.290;11.460;2023-05-15T08:58:14;9.43;;;7.07;;
36321;SDS011;23564;48.290;11.460;2023-05-15T09:00:41;10.95;;;7.82;;
36321;SDS011;23564;48.290;11.460;2023-05-15T09:03:12;10.13;;;6.90;;
36321;SDS011;23564;48.290;11.460;2023-05-15T09:05:38;10.52;;;7.30;;
36321;SDS011;23564;48.290;11.460;2023-05-15T09:08:04;9.48;;;7.78;;
36321;SDS011;23564;48.290;11.460;2023-05-15T09:10:32;9.95;;;6.85;;
36321;SDS011;23564;48.290;11.460;2023-05-15T09:13:00;9.70;;;6.90;;
36321;SDS011;23564;48.290;11.460;2023-05-15T09:15:26;11.68;;;7.55;;
36321;SDS011;23564;48.290;11.460;2023-05-15T09:17:52;10.90;;;7.40;;
36321;SDS011;23564;48.290;11.460;2023-05-15T09:20:25;10.32;;;7.15;;
36321;SDS011;23564;48.290;11.460;2023-05-15T09:22:59;13.25;;;7.57;;
36321;SDS011;23564;48.290;11.460;2023-05-15T09:28:29;12.07;;;8.15;;
36321;SDS011;23564;48.290;11.460;2023-05-15T09:31:00;12.80;;;7.30;;
36321;SDS011;23564;48.290;11.460;2023-05-15T09:33:31;12.18;;;7.80;;
36321;SDS011;23564;48.290;11.460;2023-05-15T09:35:58;10.60;;;7.65;;
36321;SDS011;23564;48.290;11.460;2023-05-15T09:38:25;11.18;;;8.65;;
36321;SDS011;23564;48.290;11.460;2023-05-15T09:40:51;9.40;;;7.72;;
36321;SDS011;23564;48.290;11.460;2023-05-15T09:43:36;11.18;;;8.13;;
36321;SDS011;23564;48.290;11.460;2023-05-15T09:46:02;9.55;;;8.13;;
36321;SDS011;23564;48.290;11.460;2023-05-15T09:48:28;10.15;;;7.65;;
36321;SDS011;23564;48.290;11.460;2023-05-15T09:50:55;11.32;;;7.55;;
36321;SDS011;23564;48.290;11.460;2023-05-15T09:53:21;11.05;;;8.43;;
36321;SDS011;23564;48.290;11.460;2023-05-15T09:55:48;10.88;;;7.90;;
36321;SDS011;23564;48.290;11.460;2023-05-15T09:58:15;8.60;;;7.20;;
36321;SDS011;23564;48.290;11.460;2023-05-15T10:00:42;13.27;;;8.02;;
36321;SDS011;23564;48.290;11.460;2023-05-15T10:03:09;8.40;;;6.50;;
36321;SDS011;23564;48.290;11.460;2023-05-15T10:05:35;10.38;;;7.82;;
36321;SDS011;23564;48.290;11.460;2023-05-15T10:08:01;11.65;;;6.90;;
36321;SDS011;23564;48.290;11.460;2023-05-15T10:10:27;11.30;;;7.90;;
36321;SDS011;23564;48.290;11.460;2023-05-15T10:12:54;10.77;;;7.88;;
36321;SDS011;23564;48.290;11.460;2023-05-15T10:15:22;12.82;;;8.35;;
36321;SDS011;23564;48.290;11.460;2023-05-15T10:17:49;11.13;;;7.85;;
36321;SDS011;23564;48.290;11.460;2023-05-15T10:20:15;8.98;;;7.22;;
36321;SDS011;23564;48.290;11.460;2023-05-15T10:22:44;12.70;;;7.63;;
36321;SDS011;23564;48.290;11.460;2023-05-15T10:25:15;10.15;;;8.10;;
36321;SDS011;23564;48.290;11.460;2023-05-15T10:27:57;12.93;;;8.20;;
36321;SDS011;23564;48.290;11.460;2023-05-15T10:30:23;10.60;;;8.30;;
36321;SDS011;23564;48.290;11.460;2023-05-15T10:32:50;11.30;;;8.65;;
36321;SDS011;23564;48.290;11.460;2023-05-15T10:35:16;11.27;;;9.13;;
36321;SDS011;23564;48.290;11.460;2023-05-15T10:37:43;11.05;;;8.18;;
36321;SDS011;23564;48.290;11.460;2023-05-15T10:40:11;12.20;;;8.13;;
36321;SDS011;23564;48.290;11.460;2023-05-15T10:42:43;10.05;;;7.53;;
36321;SDS011;23564;48.290;11.460;2023-05-15T10:45:10;10.82;;;8.02;;
36321;SDS011;23564;48.290;11.460;2023-05-15T10:47:36;9.88;;;7.80;;
36321;SDS011;23564;48.290;11.460;2023-05-15T10:50:04;11.00;;;7.97;;
36321;SDS011;23564;48.290;11.460;2023-05-15T10:52:34;9.30;;;7.38;;
36321;SDS011;23564;48.290;11.460;2023-05-15T10:55:00;11.43;;;8.63;;
36321;SDS011;23564;48.290;11.460;2023-05-15T10:57:28;10.00;;;7.90;;
36321;SDS011;23564;48.290;11.460;2023-05-15T10:59:54;15.23;;;8.52;;
36321;SDS011;23564;48.290;11.460;2023-05-15T11:02:26;9.93;;;7.47;;
36321;SDS011;23564;48.290;11.460;2023-05-15T11:04:58;11.05;;;7.55;;
36321;SDS011;23564;48.290;11.460;2023-05-15T11:07:24;7.68;;;6.20;;
36321;SDS011;23564;48.290;11.460;2023-05-15T11:09:51;9.80;;;8.45;;
36321;SDS011;23564;48.290;11.460;2023-05-15T11:12:18;13.73;;;8.57;;
36321;SDS011;23564;48.290;11.460;2023-05-15T11:17:18;9.02;;;6.45;;
36321;SDS011;23564;48.290;11.460;2023-05-15T11:24:48;6.88;;;3.13;;
36321;SDS011;23564;48.290;11.460;2023-05-15T11:27:16;4.07;;;3.08;;
36321;SDS011;23564;48.290;11.460;2023-05-15T11:30:10;6.57;;;4.10;;
36321;SDS011;23564;48.290;11.460;2023-05-15T11:35:11;4.40;;;3.08;;
36321;SDS011;23564;48.290;11.460;2023-05-15T11:38:03;4.60;;;3.05;;
36321;SDS011;23564;48.290;11.460;2023-05-15T11:40:45;5.75;;;3.22;;
36321;SDS011;23564;48.290;11.460;2023-05-15T11:45:50;3.63;;;3.08;;
36321;SDS011;23564;48.290;11.460;2023-05-15T11:48:22;3.67;;;2.70;;
36321;SDS011;23564;48.290;11.460;2023-05-15T11:50:49;4.03;;;3.55;;
36321;SDS011;23564;48.290;11.460;2023-05-15T11:53:17;6.53;;;4.38;;
36321;SDS011;23564;48.290;11.460;2023-05-15T11:55:43;8.07;;;4.22;;
36321;SDS011;23564;48.290;11.460;2023-05-15T11:58:13;6.18;;;4.70;;
36321;SDS011;23564;48.290;11.460;2023-05-15T12:00:44;5.10;;;3.60;;
36321;SDS011;23564;48.290;11.460;2023-05-15T12:03:19;5.45;;;3.25;;
36321;SDS011;23564;48.290;11.460;2023-05-15T12:05:48;8.50;;;3.67;;
36321;SDS011;23564;48.290;11.460;2023-05-15T12:08:15;6.15;;;4.25;;
36321;SDS011;23564;48.290;11.460;2023-05-15T12:10:41;9.95;;;3.70;;
36321;SDS011;23564;48.290;11.460;2023-05-15T12:13:14;6.57;;;4.22;;
36321;SDS011;23564;48.290;11.460;2023-05-15T12:15:42;5.90;;;3.50;;
36321;SDS011;23564;48.290;11.460;2023-05-15T12:18:09;4.78;;;3.65;;
36321;SDS011;23564;48.290;11.460;2023-05-15T12:20:36;4.30;;;3.60;;
36321;SDS011;23564;48.290;11.460;2023-05-15T12:23:03;5.60;;;2.60;;
36321;SDS011;23564;48.290;11.460;2023-05-15T12:25:30;3.60;;;2.40;;
36321;SDS011;23564;48.290;11.460;2023-05-15T12:27:57;2.28;;;1.95;;
36321;SDS011;23564;48.290;11.460;2023-05-15T12:30:25;2.60;;;1.77;;
36321;SDS011;23564;48.290;11.460;2023-05-15T12:32:51;4.63;;;1.95;;
36321;SDS011;23564;48.290;11.460;2023-05-15T12:35:17;3.95;;;3.10;;
36321;SDS011;23564;48.290;11.460;2023-05-15T12:37:43;10.40;;;4.05;;
36321;SDS011;23564;48.290;11.460;2023-05-15T12:40:09;8.50;;;5.32;;
36321;SDS011;23564;48.290;11.460;2023-05-15T12:42:42;5.78;;;5.13;;
36321;SDS011;23564;48.290;11.460;2023-05-15T12:45:15;13.75;;;4.85;;
36321;SDS011;23564;48.290;11.460;2023-05-15T12:47:43;6.65;;;4.18;;
36321;SDS011;23564;48.290;11.460;2023-05-15T12:50:11;6.88;;;4.47;;
36321;SDS011;23564;48.290;11.460;2023-05-15T12:52:39;9.63;;;4.50;;
36321;SDS011;23564;48.290;11.460;2023-05-15T12:55:05;7.43;;;4.68;;
36321;SDS011;23564;48.290;11.460;2023-05-15T12:57:31;4.32;;;3.58;;
36321;SDS011;23564;48.290;11.460;2023-05-15T12:59:58;8.75;;;3.13;;
36321;SDS011;23564;48.290;11.460;2023-05-15T13:02:24;3.35;;;2.10;;
36321;SDS011;23564;48.290;11.460;2023-05-15T13:04:49;9.32;;;2.55;;
36321;SDS011;23564;48.290;11.460;2023-05-15T13:07:15;4.38;;;2.50;;
36321;SDS011;23564;48.290;11.460;2023-05-15T13:09:41;3.25;;;2.38;;
36321;SDS011;23564;48.290;11.460;2023-05-15T13:12:07;4.28;;;2.40;;
36321;SDS011;23564;48.290;11.460;2023-05-15T13:14:33;5.38;;;2.40;;
36321;SDS011;23564;48.290;11.460;2023-05-15T13:16:59;2.50;;;2.30;;
36321;SDS011;23564;48.290;11.460;2023-05-15T13:19:28;2.25;;;1.85;;
36321;SDS011;23564;48.290;11.460;2023-05-15T13:21:54;2.70;;;2.30;;
36321;SDS011;23564;48.290;11.460;2023-05-15T13:24:20;2.88;;;2.25;;
36321;SDS011;23564;48.290;11.460;2023-05-15T13:26:46;5.45;;;2.30;;
36321;SDS011;23564;48.290;11.460;2023-05-15T13:29:12;4.70;;;2.20;;
36321;SDS011;23564;48.290;11.460;2023-05-15T13:31:37;3.58;;;2.25;;
36321;SDS011;23564;48.290;11.460;2023-05-15T13:34:03;4.65;;;2.28;;
36321;SDS011;23564;48.290;11.460;2023-05-15T13:36:29;2.58;;;2.03;;
36321;SDS011;23564;48.290;11.460;2023-05-15T13:38:55;4.25;;;2.13;;
36321;SDS011;23564;48.290;11.460;2023-05-15T13:41:20;4.13;;;2.10;;
36321;SDS011;23564;48.290;11.460;2023-05-15T13:43:46;4.43;;;2.25;;
36321;SDS011;23564;48.290;11.460;2023-05-15T13:46:13;2.58;;;2.00;;
36321;SDS011;23564;48.290;11.460;2023-05-15T13:48:39;2.80;;;2.08;;
36321;SDS011;23564;48.290;11.460;2023-05-15T13:51:04;3.95;;;2.13;;
36321;SDS011;23564;48.290;11.460;2023-05-15T13:53:30;4.75;;;2.80;;
36321;SDS011;23564;48.290;11.460;2023-05-15T13:55:56;4.85;;;2.50;;
36321;SDS011;23564;48.290;11.460;2023-05-15T13:58:21;6.60;;;2.67;;
36321;SDS011;23564;48.290;11.460;2023-05-15T14:00:50;4.22;;;3.00;;
36321;SDS011;23564;48.290;11.460;2023-05-15T14:03:16;3.65;;;3.25;;
36321;SDS011;23564;48.290;11.460;2023-05-15T14:05:41;6.13;;;3.03;;
36321;SDS011;23564;48.290;11.460;2023-05-15T14:08:07;7.13;;;3.63;;
36321;SDS011;23564;48.290;11.460;2023-05-15T14:10:33;5.95;;;3.70;;
36321;SDS011;23564;48.290;11.460;2023-05-15T14:13:01;6.30;;;4.15;;
36321;SDS011;23564;48.290;11.460;2023-05-15T14:15:26;6.55;;;3.40;;
36321;SDS011;23564;48.290;11.460;2023-05-15T14:17:52;7.28;;;3.10;;
36321;SDS011;23564;48.290;11.460;2023-05-15T14:20:18;3.55;;;2.88;;
36321;SDS011;23564;48.290;11.460;2023-05-15T14:22:43;4.45;;;3.05;;
36321;SDS011;23564;48.290;11.460;2023-05-15T14:25:09;3.25;;;2.80;;
36321;SDS011;23564;48.290;11.460;2023-05-15T14:27:35;3.58;;;2.50;;
36321;SDS011;23564;48.290;11.460;2023-05-15T14:30:00;3.70;;;2.40;;
36321;SDS011;23564;48.290;11.460;2023-05-15T14:32:26;3.55;;;2.83;;
36321;SDS011;23564;48.290;11.460;2023-05-15T14:34:52;4.97;;;2.63;;
36321;SDS011;23564;48.290;11.460;2023-05-15T14:37:17;3.53;;;2.60;;
36321;SDS011;23564;48.290;11.460;2023-05-15T14:39:43;3.85;;;2.58;;
36321;SDS011;23564;48.290;11.460;2023-05-15T14:42:09;3.92;;;2.50;;
36321;SDS011;23564;48.290;11.460;2023-05-15T14:44:35;5.40;;;3.08;;
36321;SDS011;23564;48.290;11.460;2023-05-15T14:47:10;5.95;;;3.20;;